Time;durP1;ratioP1;P1;durP2;ratioP2;P2;SDS_P1;SDS_P2;PMS_P1;PMS_P2;Temp;Humidity;BMP_temperature;BMP_pressure;BME280_temperature;BME280_humidity;BME280_pressure;Samples;Min_cycle;Max_cycle;Signal;HPM_P1;HPM_P2
2022/03/26 00:01:49;;;;;;;32.72;14.85;;;;;;;0.48;71.73;99977.94;4187958;28;20429;-72
2022/03/26 00:03:49;;;;;;;28.63;14.80;;;;;;;0.44;71.73;99982.31;4187828;28;20415;-72
2022/03/26 00:05:49;;;;;;;30.52;15.45;;;;;;;0.43;71.90;99977.16;4190854;28;20044;-72
2022/03/26 00:07:50;;;;;;;34.78;16.45;;;;;;;0.37;73.19;99976.34;4187832;28;20035;-72
2022/03/26 00:09:50;;;;;;;31.50;15.52;;;;;;;0.28;73.48;99962.47;4188109;28;20179;-72
2022/03/26 00:11:51;;;;;;;32.85;14.52;;;;;;;0.26;73.35;99966.56;4190097;28;20045;-72
2022/03/26 00:13:51;;;;;;;31.25;14.98;;;;;;;0.22;73.10;99965.47;4194799;28;20131;-72
2022/03/26 00:15:51;;;;;;;28.00;14.98;;;;;;;0.23;72.17;99969.81;4189542;28;20032;-72
2022/03/26 00:17:52;;;;;;;30.35;14.32;;;;;;;0.25;71.63;99959.50;4187415;28;20162;-72
2022/03/26 00:19:52;;;;;;;29.30;13.90;;;;;;;0.19;73.03;99960.56;4187498;28;20071;-72
2022/03/26 00:21:53;;;;;;;31.02;15.32;;;;;;;0.18;71.96;99954.31;4192202;28;20144;-72
2022/03/26 00:23:53;;;;;;;30.35;15.85;;;;;;;0.21;71.75;99955.66;4187077;28;20098;-72
2022/03/26 00:25:55;;;;;;;28.58;14.77;;;;;;;0.20;72.32;99945.88;4188743;28;20131;-72
2022/03/26 00:27:55;;;;;;;24.88;15.18;;;;;;;0.22;71.74;99947.22;4189009;28;20048;-71
2022/03/26 00:29:56;;;;;;;32.47;14.52;;;;;;;0.20;72.74;99951.31;4187140;28;20303;-72
2022/03/26 00:31:57;;;;;;;36.35;15.90;;;;;;;0.14;73.23;99950.50;4187292;28;20317;-72
2022/03/26 00:33:58;;;;;;;33.88;16.23;;;;;;;0.13;73.44;99956.22;4188378;28;20047;-71
2022/03/26 00:35:58;;;;;;;33.63;16.23;;;;;;;0.05;74.26;99945.88;4190305;28;20476;-72
2022/03/26 00:37:59;;;;;;;33.78;15.48;;;;;;;0.05;73.14;99943.16;4186538;28;20040;-72
2022/03/26 00:39:59;;;;;;;35.58;15.65;;;;;;;0.04;72.88;99947.78;4190244;28;20384;-72
2022/03/26 00:42:00;;;;;;;31.90;16.08;;;;;;;0.06;72.74;99937.44;4188011;28;20048;-72
2022/03/26 00:44:01;;;;;;;31.33;14.95;;;;;;;0.14;71.52;99939.59;4189558;28;20029;-72
2022/03/26 00:46:01;;;;;;;29.75;15.90;;;;;;;0.21;72.13;99942.06;4188391;28;20052;-72
2022/03/26 00:48:02;;;;;;;30.23;15.55;;;;;;;0.28;72.12;99937.16;4188485;28;20125;-72
2022/03/26 00:50:03;;;;;;;30.00;15.80;;;;;;;0.28;71.76;99942.59;4188050;28;20027;-72
2022/03/26 00:52:04;;;;;;;33.92;15.25;;;;;;;0.24;71.81;99939.59;4186805;28;20406;-72
2022/03/26 00:54:04;;;;;;;30.85;16.05;;;;;;;0.18;72.10;99932.53;4190345;28;20032;-72
2022/03/26 00:56:05;;;;;;;31.17;14.40;;;;;;;0.15;72.00;99934.97;4187083;28;20117;-72
2022/03/26 00:58:05;;;;;;;31.27;15.85;;;;;;;0.13;72.43;99937.97;4186508;28;20025;-72
2022/03/26 01:00:07;;;;;;;32.85;15.77;;;;;;;0.13;71.97;99934.44;4187933;28;20353;-72
2022/03/26 01:02:07;;;;;;;29.85;15.00;;;;;;;0.10;71.60;99930.38;4189243;28;20052;-72
2022/03/26 01:04:08;;;;;;;39.40;14.38;;;;;;;0.16;70.99;99923.00;4187807;28;20032;-72
2022/03/26 01:06:08;;;;;;;28.77;15.30;;;;;;;0.11;72.12;99926.56;4187023;28;20554;-72
2022/03/26 01:08:08;;;;;;;30.25;13.60;;;;;;;0.14;71.35;99934.16;4187808;28;20036;-72
2022/03/26 01:10:09;;;;;;;28.10;14.25;;;;;;;0.14;72.51;99938.78;4188932;28;20036;-72
2022/03/26 01:12:10;;;;;;;30.70;14.55;;;;;;;0.10;71.52;99938.53;4187212;28;20046;-72
2022/03/26 01:14:10;;;;;;;32.85;14.85;;;;;;;0.11;71.39;99933.91;4187317;28;20036;-72
2022/03/26 01:16:12;;;;;;;31.13;14.43;;;;;;;0.10;71.70;99935.00;4187893;28;20036;-72
2022/03/26 01:18:13;;;;;;;32.03;15.32;;;;;;;0.01;71.69;99933.94;4191147;28;20032;-72
2022/03/26 01:20:13;;;;;;;32.35;16.15;;;;;;;-0.04;72.07;99940.16;4195477;28;20294;-72
2022/03/26 01:22:13;;;;;;;25.85;15.20;;;;;;;-0.09;72.15;99934.72;4192351;28;20731;-72
2022/03/26 01:24:14;;;;;;;30.40;14.35;;;;;;;-0.12;72.31;99946.16;4193645;28;20612;-72
2022/03/26 01:26:14;;;;;;;29.20;14.05;;;;;;;-0.15;72.78;99944.00;4194532;28;20067;-72
2022/03/26 01:28:15;;;;;;;26.83;14.38;;;;;;;-0.24;73.12;99946.44;4195245;28;20036;-72
2022/03/26 01:30:15;;;;;;;31.70;14.38;;;;;;;-0.30;72.95;99942.06;4200456;28;20071;-72
2022/03/26 01:32:16;;;;;;;29.30;13.93;;;;;;;-0.32;73.92;99952.41;4194455;28;20127;-71
2022/03/26 01:34:17;;;;;;;31.33;14.88;;;;;;;-0.28;72.26;99942.59;4195892;28;20027;-72
2022/03/26 01:36:17;;;;;;;23.88;12.75;;;;;;;-0.27;72.97;99941.53;4196331;28;20036;-72
2022/03/26 01:38:18;;;;;;;28.23;14.57;;;;;;;-0.35;74.63;99937.44;4194570;28;20024;-71
2022/03/26 01:40:18;;;;;;;29.83;14.95;;;;;;;-0.39;74.19;99935.53;4198577;28;20032;-72
2022/03/26 01:42:18;;;;;;;29.17;14.88;;;;;;;-0.44;74.62;99946.41;4196430;28;20056;-71
2022/03/26 01:44:19;;;;;;;32.10;15.40;;;;;;;-0.51;75.24;99945.84;4191826;28;20714;-72
2022/03/26 01:46:20;;;;;;;27.30;13.88;;;;;;;-0.54;77.17;99949.91;4198816;28;20064;-72
2022/03/26 01:48:21;;;;;;;34.13;15.25;;;;;;;-0.66;79.06;99958.34;4198085;28;20051;-72
2022/03/26 01:50:22;;;;;;;36.55;14.85;;;;;;;-0.69;78.75;99950.69;4194629;28;20044;-71
2022/03/26 01:52:22;;;;;;;30.10;14.18;;;;;;;-0.75;78.87;99954.47;4191697;28;20124;-72
2022/03/26 01:54:23;;;;;;;32.25;15.20;;;;;;;-0.80;79.10;99956.38;4190513;28;20471;-71
2022/03/26 01:56:25;;;;;;;34.90;15.55;;;;;;;-0.88;79.12;99950.38;4199121;28;20072;-71
2022/03/26 01:58:25;;;;;;;28.38;15.15;;;;;;;-0.89;80.27;99946.03;4199053;28;20067;-72
2022/03/26 02:00:26;;;;;;;37.30;16.45;;;;;;;-0.93;80.08;99954.97;4198345;28;20039;-71
2022/03/26 02:02:26;;;;;;;33.05;14.90;;;;;;;-1.00;79.98;99947.06;4194428;28;20045;-71
2022/03/26 02:04:27;;;;;;;28.75;15.85;;;;;;;-1.05;80.18;99952.50;4197784;28;20449;-71
2022/03/26 02:06:34;;;;;;;35.08;15.77;;;;;;;-1.09;80.07;99947.84;4194329;28;20032;-71
2022/03/26 02:08:34;;;;;;;32.35;15.40;;;;;;;-1.13;80.26;99953.00;4198417;28;20119;-71
2022/03/26 02:10:35;;;;;;;30.45;14.63;;;;;;;-1.16;80.99;99951.66;4192775;28;20440;-71
2022/03/26 02:12:36;;;;;;;27.98;14.05;;;;;;;-1.16;81.04;99961.66;4199137;28;20085;-71
2022/03/26 02:14:36;;;;;;;38.65;15.48;;;;;;;-1.24;80.85;99956.75;4196493;28;20043;-71
2022/03/26 02:16:39;;;;;;;32.60;16.02;;;;;;;-1.27;81.12;99960.00;4195938;28;20452;-71
2022/03/26 02:18:39;;;;;;;35.13;16.00;;;;;;;-1.27;79.84;99955.38;4197679;28;20437;-71
2022/03/26 02:20:40;;;;;;;30.83;14.45;;;;;;;-1.25;78.31;99965.97;4198296;28;20477;-71
2022/03/26 02:22:41;;;;;;;26.60;14.20;;;;;;;-1.27;78.30;99963.53;4198017;28;20035;-71
2022/03/26 02:24:41;;;;;;;28.45;14.20;;;;;;;-1.30;78.85;99961.34;4196741;28;20550;-71
2022/03/26 02:26:42;;;;;;;32.15;14.77;;;;;;;-1.29;78.81;99959.44;4196054;28;20459;-71
2022/03/26 02:28:46;;;;;;;29.23;13.82;;;;;;;-1.26;78.64;99961.63;4195885;28;20139;-72
2022/03/26 02:30:46;;;;;;;31.63;15.02;;;;;;;-1.26;77.85;99965.16;4197063;28;20040;-71
2022/03/26 02:32:47;;;;;;;25.38;13.70;;;;;;;-1.24;77.66;99967.59;4198112;28;20089;-71
2022/03/26 02:34:49;;;;;;;32.30;14.48;;;;;;;-1.30;77.66;99955.91;4193817;28;20093;-71
2022/03/26 02:36:49;;;;;;;30.10;14.52;;;;;;;-1.26;77.29;99954.28;4201580;28;20040;-71
2022/03/26 02:38:50;;;;;;;30.65;15.30;;;;;;;-1.24;77.34;99954.88;4195679;28;20369;-71
2022/03/26 02:40:51;;;;;;;31.35;15.55;;;;;;;-1.23;76.60;99961.94;4193767;28;20098;-71
2022/03/26 02:42:51;;;;;;;33.70;15.77;;;;;;;-1.26;77.46;99951.56;4195532;28;20486;-71
2022/03/26 02:44:52;;;;;;;33.15;14.32;;;;;;;-1.31;77.70;99953.47;4196057;28;20084;-71
2022/03/26 02:46:52;;;;;;;34.17;16.10;;;;;;;-1.38;79.04;99950.16;4193966;28;20051;-71
2022/03/26 02:48:53;;;;;;;37.17;16.52;;;;;;;-1.43;79.05;99954.47;4195903;28;20044;-71
2022/03/26 02:50:53;;;;;;;27.85;14.77;;;;;;;-1.44;78.75;99950.13;4199275;28;20360;-71
2022/03/26 02:52:53;;;;;;;25.58;13.90;;;;;;;-1.44;79.10;99946.59;4197546;28;20094;-71
2022/03/26 02:54:54;;;;;;;34.60;14.80;;;;;;;-1.45;78.58;99943.06;4199443;28;20482;-71
2022/03/26 02:56:54;;;;;;;29.08;14.63;;;;;;;-1.38;77.40;99953.69;4194878;28;20040;-71
2022/03/26 02:58:55;;;;;;;30.20;14.88;;;;;;;-1.36;77.37;99953.44;4196087;28;20052;-71
2022/03/26 03:00:57;;;;;;;31.17;14.13;;;;;;;-1.35;77.08;99949.63;4192298;28;20484;-71
2022/03/26 03:02:58;;;;;;;27.55;14.73;;;;;;;-1.35;77.22;99949.63;4195485;28;20425;-71
2022/03/26 03:04:59;;;;;;;39.03;15.77;;;;;;;-1.32;76.90;99943.69;4196026;28;20047;-71
2022/03/26 03:06:59;;;;;;;29.73;13.95;;;;;;;-1.28;76.51;99940.16;4195005;28;20037;-71
2022/03/26 03:09:00;;;;;;;31.33;15.02;;;;;;;-1.31;77.23;99938.00;4195498;28;20048;-71
2022/03/26 03:11:00;;;;;;;28.27;13.43;;;;;;;-1.35;77.13;99938.78;4190860;28;20044;-71
2022/03/26 03:13:01;;;;;;;30.20;14.02;;;;;;;-1.40;77.44;99934.16;4196648;28;20033;-71
2022/03/26 03:15:01;;;;;;;34.25;16.30;;;;;;;-1.43;77.86;99942.81;4196312;28;20131;-71
2022/03/26 03:17:01;;;;;;;30.67;14.07;;;;;;;-1.45;77.63;99940.34;4194462;28;20032;-71
2022/03/26 03:19:02;;;;;;;33.63;14.80;;;;;;;-1.40;76.43;99942.28;4198703;28;20439;-71
2022/03/26 03:21:02;;;;;;;31.30;15.57;;;;;;;-1.38;76.36;99940.13;4193122;28;20048;-71
2022/03/26 03:23:02;;;;;;;28.30;14.02;;;;;;;-1.37;77.24;99933.63;4195355;28;20047;-71
2022/03/26 03:25:05;;;;;;;33.47;14.07;;;;;;;-1.34;77.03;99933.06;4194982;28;20494;-71
2022/03/26 03:27:05;;;;;;;27.67;13.00;;;;;;;-1.31;76.65;99943.44;4193193;28;20049;-71
2022/03/26 03:29:05;;;;;;;28.75;15.18;;;;;;;-1.23;76.15;99925.81;4196647;28;20469;-71
2022/03/26 03:31:06;;;;;;;28.42;14.32;;;;;;;-1.21;76.92;99932.59;4193770;28;20044;-71
2022/03/26 03:33:06;;;;;;;24.52;13.38;;;;;;;-1.16;75.38;99921.78;4195327;28;20052;-71
2022/03/26 03:35:07;;;;;;;27.73;14.70;;;;;;;-1.18;75.31;99920.38;4198087;28;20805;-71
2022/03/26 03:37:07;;;;;;;35.88;15.45;;;;;;;-1.19;75.88;99930.44;4197539;28;20074;-71
2022/03/26 03:39:08;;;;;;;30.98;13.93;;;;;;;-1.23;76.23;99921.19;4195336;28;20052;-71
2022/03/26 03:41:09;;;;;;;34.55;13.85;;;;;;;-1.24;76.51;99922.28;4191213;28;20309;-71
2022/03/26 03:43:09;;;;;;;24.58;12.85;;;;;;;-1.24;75.03;99927.72;4196280;28;20415;-71
2022/03/26 03:45:10;;;;;;;32.85;14.20;;;;;;;-1.24;76.95;99935.84;4196751;28;20305;-71
2022/03/26 03:47:10;;;;;;;27.55;13.68;;;;;;;-1.28;77.32;99931.22;4196171;28;20522;-71
2022/03/26 03:49:11;;;;;;;31.80;14.88;;;;;;;-1.39;79.22;99930.34;4190049;28;20583;-72
2022/03/26 03:51:11;;;;;;;30.10;14.38;;;;;;;-1.49;80.37;99931.13;4193876;28;20422;-71
2022/03/26 03:53:12;;;;;;;31.42;14.70;;;;;;;-1.56;80.60;99930.53;4195528;28;20438;-71
2022/03/26 03:55:12;;;;;;;31.17;14.07;;;;;;;-1.53;79.32;99927.28;4196712;28;20476;-71
2022/03/26 03:57:12;;;;;;;29.98;14.07;;;;;;;-1.51;78.41;99921.59;4191334;28;20440;-71
2022/03/26 03:59:13;;;;;;;34.55;14.23;;;;;;;-1.53;79.22;99926.47;4195008;28;20122;-71
2022/03/26 04:01:13;;;;;;;37.53;14.23;;;;;;;-1.57;79.17;99922.63;4196832;28;20097;-71
2022/03/26 04:03:16;;;;;;;33.75;14.82;;;;;;;-1.59;79.40;99920.19;4195944;28;20041;-72
2022/03/26 04:05:17;;;;;;;30.23;13.25;;;;;;;-1.61;79.44;99916.09;4194023;28;20075;-72
2022/03/26 04:07:17;;;;;;;32.47;14.18;;;;;;;-1.58;78.94;99926.44;4200917;28;20048;-72
2022/03/26 04:09:17;;;;;;;29.52;13.98;;;;;;;-1.59;78.86;99932.94;4188794;28;20494;-72
2022/03/26 04:11:18;;;;;;;28.98;14.32;;;;;;;-1.60;79.35;99931.31;4195153;28;20047;-72
2022/03/26 04:13:18;;;;;;;33.78;14.75;;;;;;;-1.64;79.85;99931.03;4194783;28;20047;-72
2022/03/26 04:15:18;;;;;;;36.97;15.63;;;;;;;-1.66;80.16;99924.22;4194232;28;20355;-72
2022/03/26 04:17:19;;;;;;;41.65;16.42;;;;;;;-1.72;82.10;99932.34;4196889;28;20127;-72
2022/03/26 04:19:19;;;;;;;33.05;14.88;;;;;;;-1.73;83.40;99935.31;4198509;28;20048;-72
2022/03/26 04:21:19;;;;;;;29.92;14.30;;;;;;;-1.75;84.00;99938.28;4194321;28;20056;-72
2022/03/26 04:23:20;;;;;;;32.90;14.35;;;;;;;-1.79;83.26;99928.22;4192540;28;20527;-72
2022/03/26 04:25:20;;;;;;;29.88;14.63;;;;;;;-1.77;85.24;99932.28;4191599;28;20510;-72
2022/03/26 04:27:21;;;;;;;31.73;14.55;;;;;;;-1.75;86.53;99942.88;4195626;28;20033;-72
2022/03/26 04:29:21;;;;;;;30.30;14.13;;;;;;;-1.81;86.66;99939.34;4196562;28;20046;-72
2022/03/26 04:31:22;;;;;;;29.65;14.43;;;;;;;-1.91;86.06;99935.72;4190332;28;20049;-72
2022/03/26 04:33:22;;;;;;;29.30;14.23;;;;;;;-2.01;85.99;99933.75;4191402;28;20041;-72
2022/03/26 04:35:22;;;;;;;31.35;15.43;;;;;;;-2.07;85.55;99938.34;4190756;28;20704;-72
2022/03/26 04:37:23;;;;;;;31.92;14.60;;;;;;;-2.15;84.61;99940.69;4196645;28;20047;-72
2022/03/26 04:39:23;;;;;;;26.08;14.02;;;;;;;-2.20;84.76;99943.38;4191246;28;20298;-72
2022/03/26 04:41:24;;;;;;;30.65;14.73;;;;;;;-2.20;83.41;99935.25;4194755;28;20051;-72
2022/03/26 04:43:25;;;;;;;37.80;16.15;;;;;;;-2.22;83.54;99930.06;4193051;28;20442;-72
2022/03/26 04:45:25;;;;;;;33.00;14.93;;;;;;;-2.22;83.57;99930.06;4195629;28;20047;-72
2022/03/26 04:47:26;;;;;;;26.98;14.30;;;;;;;-2.18;82.42;99938.50;4195728;28;20082;-71
2022/03/26 04:49:26;;;;;;;32.75;15.52;;;;;;;-2.12;81.98;99937.47;4196258;28;20156;-71
2022/03/26 04:51:26;;;;;;;32.10;14.70;;;;;;;-2.05;80.46;99936.19;4191175;28;20045;-71
2022/03/26 04:53:27;;;;;;;36.72;15.23;;;;;;;-2.04;81.44;99940.53;4188426;28;20120;-72
2022/03/26 04:55:27;;;;;;;32.67;13.93;;;;;;;-2.04;80.52;99943.22;4195471;28;20379;-72
2022/03/26 04:57:27;;;;;;;27.70;14.15;;;;;;;-2.04;80.71;99942.41;4196545;28;20040;-72
2022/03/26 04:59:28;;;;;;;30.52;15.25;;;;;;;-2.04;82.40;99943.22;4191641;28;20396;-72
2022/03/26 05:01:28;;;;;;;33.38;16.73;;;;;;;-2.05;82.62;99940.78;4194253;28;20203;-72
2022/03/26 05:03:29;;;;;;;31.17;14.95;;;;;;;-2.07;81.74;99956.47;4193515;28;20040;-72
2022/03/26 05:05:29;;;;;;;32.60;15.27;;;;;;;-2.17;82.09;99949.09;4191404;28;20046;-72
2022/03/26 05:07:48;;;;;;;36.95;16.30;;;;;;;-2.25;83.88;99957.69;4189448;28;20087;-72
2022/03/26 05:09:49;;;;;;;32.20;13.90;;;;;;;-2.31;84.76;99951.41;4191295;28;20357;-72
2022/03/26 05:11:49;;;;;;;28.92;14.13;;;;;;;-2.32;84.06;99948.94;4191870;28;20201;-72
2022/03/26 05:13:49;;;;;;;30.92;14.77;;;;;;;-2.36;84.27;99953.25;4193798;28;20051;-72
2022/03/26 05:15:50;;;;;;;35.33;15.88;;;;;;;-2.42;84.76;99955.09;4194128;28;20044;-72
2022/03/26 05:17:51;;;;;;;32.80;15.27;;;;;;;-2.43;85.64;99955.34;4191811;28;20085;-72
2022/03/26 05:19:51;;;;;;;39.72;18.92;;;;;;;-2.39;87.02;99949.19;4197616;28;20041;-72
2022/03/26 05:21:52;;;;;;;41.90;19.50;;;;;;;-2.42;86.46;99955.09;4190497;28;20044;-72
2022/03/26 05:23:52;;;;;;;39.40;19.83;;;;;;;-2.43;86.40;99958.88;4193712;28;20037;-72
2022/03/26 05:25:53;;;;;;;40.72;22.55;;;;;;;-2.42;86.65;99949.66;4194836;28;20126;-72
2022/03/26 05:27:54;;;;;;;40.33;19.88;;;;;;;-2.42;86.40;99949.66;4193011;28;20056;-71
2022/03/26 05:29:55;;;;;;;38.20;17.35;;;;;;;-2.44;86.13;99953.72;4193503;28;20044;-71
2022/03/26 05:31:55;;;;;;;32.78;16.38;;;;;;;-2.44;85.96;99957.25;4195314;28;20826;-71
2022/03/26 05:33:56;;;;;;;38.13;16.33;;;;;;;-2.42;87.15;99957.00;4196065;28;20450;-72
2022/03/26 05:35:56;;;;;;;36.33;17.55;;;;;;;-2.37;84.93;99957.03;4197601;28;20039;-72
2022/03/26 05:37:56;;;;;;;33.47;16.17;;;;;;;-2.39;84.56;99964.63;4188974;28;20039;-71
2022/03/26 05:39:57;;;;;;;38.03;15.95;;;;;;;-2.33;84.26;99969.81;4191059;28;20404;-72
2022/03/26 05:41:58;;;;;;;34.75;16.45;;;;;;;-2.22;82.59;99973.47;4187634;28;20119;-72
2022/03/26 05:43:59;;;;;;;40.55;16.98;;;;;;;-2.19;82.24;99972.13;4193704;28;20055;-72
2022/03/26 05:45:59;;;;;;;31.65;15.77;;;;;;;-2.17;82.48;99970.78;4193666;28;20045;-72
2022/03/26 05:48:06;;;;;;;31.00;15.75;;;;;;;-2.09;82.62;99974.91;4192667;28;20396;-72
2022/03/26 05:50:10;;;;;;;30.25;14.93;;;;;;;-1.95;81.28;99980.72;4193450;28;20047;-72
2022/03/26 05:52:10;;;;;;;31.20;14.65;;;;;;;-1.93;81.42;99976.66;4189075;28;20152;-72
2022/03/26 05:54:11;;;;;;;38.60;17.65;;;;;;;-1.91;82.81;99977.22;4192105;28;20056;-72
2022/03/26 05:56:12;;;;;;;34.05;16.80;;;;;;;-1.86;82.55;99979.97;4198815;28;20032;-72
2022/03/26 05:58:12;;;;;;;40.35;17.20;;;;;;;-1.85;82.78;99981.63;4192203;28;20150;-72
2022/03/26 06:00:13;;;;;;;41.03;18.02;;;;;;;-1.77;81.18;99988.47;4192522;28;20020;-72
2022/03/26 06:02:15;;;;;;;45.17;21.02;;;;;;;-1.71;81.98;99990.13;4193046;28;20081;-72
2022/03/26 06:04:16;;;;;;;49.55;23.63;;;;;;;-1.68;81.71;99986.91;4194491;28;20056;-72
2022/03/26 06:06:16;;;;;;;43.50;20.45;;;;;;;-1.67;81.00;99982.28;4195341;28;20043;-71
2022/03/26 06:08:17;;;;;;;37.20;19.20;;;;;;;-1.58;80.40;99986.13;4190244;28;20380;-71
2022/03/26 06:10:18;;;;;;;41.55;19.65;;;;;;;-1.52;80.99;99994.06;4192497;28;20044;-72
2022/03/26 06:12:18;;;;;;;36.35;17.00;;;;;;;-1.45;80.70;99996.56;4194098;28;20032;-72
2022/03/26 06:14:18;;;;;;;39.35;19.85;;;;;;;-1.40;80.80;99998.50;4191279;28;20488;-72
2022/03/26 06:16:19;;;;;;;51.17;22.45;;;;;;;-1.35;81.84;100003.94;4199729;28;20035;-72
2022/03/26 06:18:19;;;;;;;40.80;20.83;;;;;;;-1.33;82.50;99996.34;4195692;28;20036;-72
2022/03/26 06:20:19;;;;;;;47.47;20.17;;;;;;;-1.27;81.56;100004.25;4191703;28;20025;-72
2022/03/26 06:22:19;;;;;;;36.70;19.25;;;;;;;-1.21;80.47;100003.22;4196698;28;20067;-72
2022/03/26 06:24:20;;;;;;;42.53;19.95;;;;;;;-1.11;79.17;100002.44;4196107;28;20047;-72
2022/03/26 06:26:20;;;;;;;38.35;18.33;;;;;;;-1.06;79.29;99997.03;4137939;28;20048;-72
2022/03/26 06:28:21;;;;;;;28.77;15.80;;;;;;;-0.99;79.20;100013.94;4195253;28;20124;-72
2022/03/26 06:30:21;;;;;;;42.33;17.60;;;;;;;-0.92;78.51;100009.03;4195799;28;20033;-72
2022/03/26 06:32:21;;;;;;;31.73;16.33;;;;;;;-0.84;78.13;100005.00;4197389;28;20040;-72
2022/03/26 06:34:24;;;;;;;31.20;15.63;;;;;;;-0.73;77.44;100003.97;4193744;28;20410;-72
2022/03/26 06:36:25;;;;;;;33.30;15.40;;;;;;;-0.68;78.17;100003.97;4197486;28;20046;-72
2022/03/26 06:38:31;;;;;;;32.45;14.63;;;;;;;-0.62;78.36;100005.63;4196441;28;20442;-72
2022/03/26 06:40:31;;;;;;;35.28;15.93;;;;;;;-0.57;78.43;100013.00;4198257;28;20086;-72
2022/03/26 06:42:31;;;;;;;28.38;14.68;;;;;;;-0.50;78.96;100012.72;4195513;28;20040;-71
2022/03/26 06:44:32;;;;;;;38.50;16.05;;;;;;;-0.48;80.58;100011.41;4192545;28;20032;-71
2022/03/26 06:46:32;;;;;;;31.25;15.73;;;;;;;-0.44;80.72;100011.66;4196659;28;20048;-71
2022/03/26 06:48:33;;;;;;;31.95;14.65;;;;;;;-0.41;78.55;100014.69;4194199;28;20283;-72
2022/03/26 06:50:33;;;;;;;35.08;15.82;;;;;;;-0.35;77.45;100016.31;4200310;28;20097;-72
2022/03/26 06:52:33;;;;;;;30.92;14.90;;;;;;;-0.30;79.08;100012.78;4193477;28;20048;-72
2022/03/26 06:54:34;;;;;;;35.35;14.63;;;;;;;-0.21;78.94;100002.19;4194905;28;20384;-72
2022/03/26 06:56:34;;;;;;;32.55;14.77;;;;;;;-0.14;78.92;100010.91;4192347;28;20036;-72
2022/03/26 06:58:34;;;;;;;32.20;14.48;;;;;;;-0.08;78.57;99997.06;4198404;28;20567;-71
2022/03/26 07:00:35;;;;;;;31.27;15.20;;;;;;;-0.03;78.57;100002.47;4196970;28;20041;-72
2022/03/26 07:02:36;;;;;;;34.78;15.35;;;;;;;0.05;78.88;100008.47;4196131;28;20040;-72
2022/03/26 07:04:36;;;;;;;29.95;15.10;;;;;;;0.12;80.61;100007.13;4195524;28;20133;-72
2022/03/26 07:06:36;;;;;;;33.60;15.27;;;;;;;0.21;81.88;100010.09;4195923;28;20047;-72
2022/03/26 07:08:36;;;;;;;33.10;15.70;;;;;;;0.30;84.11;100021.28;4194116;28;20511;-72
2022/03/26 07:10:41;;;;;;;36.22;15.82;;;;;;;0.37;86.00;100024.53;4199333;28;20044;-72
2022/03/26 07:12:41;;;;;;;33.47;15.98;;;;;;;0.45;86.51;100029.44;4195160;28;20471;-72
2022/03/26 07:14:41;;;;;;;34.38;16.10;;;;;;;0.51;86.35;100031.88;4195139;28;20040;-72
2022/03/26 07:16:42;;;;;;;35.17;15.90;;;;;;;0.56;84.31;100026.41;4192885;28;20048;-72
2022/03/26 07:18:42;;;;;;;28.50;14.93;;;;;;;0.64;82.75;100030.50;4191817;28;20135;-72
2022/03/26 07:20:43;;;;;;;33.70;16.42;;;;;;;0.71;86.62;100027.50;4191925;28;20133;-72
2022/03/26 07:22:44;;;;;;;33.22;16.65;;;;;;;0.84;87.20;100032.38;4192686;28;20110;-72
2022/03/26 07:24:44;;;;;;;37.42;17.73;;;;;;;0.94;88.10;100036.97;4193336;28;20040;-72
2022/03/26 07:26:44;;;;;;;36.35;18.10;;;;;;;1.02;86.92;100026.31;4193799;28;20045;-72
2022/03/26 07:28:45;;;;;;;46.97;19.48;;;;;;;1.11;85.95;100043.75;4196374;28;20074;-72
2022/03/26 07:30:45;;;;;;;50.75;22.38;;;;;;;1.20;85.60;100032.25;4193668;28;20733;-72
2022/03/26 07:32:46;;;;;;;40.92;19.50;;;;;;;1.29;83.80;100025.13;4195068;28;20579;-72
2022/03/26 07:34:46;;;;;;;51.42;21.67;;;;;;;1.41;83.32;100031.09;4195341;28;20051;-71
2022/03/26 07:36:47;;;;;;;43.63;18.75;;;;;;;1.51;83.66;100022.88;4194754;28;20438;-72
2022/03/26 07:38:47;;;;;;;42.70;18.80;;;;;;;1.59;82.85;100022.28;4196125;28;20041;-71
2022/03/26 07:40:47;;;;;;;42.08;18.92;;;;;;;1.71;83.11;100026.56;4194903;28;20041;-71
2022/03/26 07:42:48;;;;;;;37.60;17.17;;;;;;;1.84;84.54;100029.50;4193953;28;20572;-71
2022/03/26 07:44:48;;;;;;;36.17;16.25;;;;;;;1.91;83.73;100019.09;4198264;28;20044;-72
2022/03/26 07:46:48;;;;;;;40.38;18.35;;;;;;;2.05;81.75;100018.41;4190126;28;20610;-72
2022/03/26 07:48:49;;;;;;;36.75;16.73;;;;;;;2.18;82.22;100023.25;4197824;28;20032;-71
2022/03/26 07:50:49;;;;;;;41.55;17.33;;;;;;;2.36;87.26;100029.94;4196734;28;20049;-72
2022/03/26 07:52:49;;;;;;;37.75;17.63;;;;;;;2.50;87.77;100020.78;4200028;28;20067;-71
2022/03/26 07:54:50;;;;;;;37.33;18.67;;;;;;;2.62;84.01;100025.88;4194559;28;20052;-71
2022/03/26 07:56:50;;;;;;;39.42;19.45;;;;;;;2.76;87.17;100029.56;4193539;28;20467;-71
2022/03/26 07:58:51;;;;;;;33.03;16.25;;;;;;;2.89;83.36;100024.50;4198617;28;20418;-71
2022/03/26 08:00:51;;;;;;;40.13;18.48;;;;;;;3.01;85.06;100024.94;4192288;28;20203;-71
2022/03/26 08:02:57;;;;;;;38.15;19.50;;;;;;;3.13;83.13;100024.50;4196044;28;20357;-71
2022/03/26 08:04:57;;;;;;;43.15;19.75;;;;;;;3.30;86.13;100022.94;4197735;28;20683;-71
2022/03/26 08:06:59;;;;;;;38.05;17.48;;;;;;;3.40;84.43;100027.50;4194211;28;20048;-71
2022/03/26 08:09:00;;;;;;;41.90;17.63;;;;;;;3.51;80.36;100012.56;4194483;28;20131;-71
2022/03/26 08:11:00;;;;;;;32.30;16.80;;;;;;;3.64;81.93;100025.53;4192940;28;20084;-72
2022/03/26 08:13:01;;;;;;;34.03;16.75;;;;;;;3.78;78.05;100022.03;4189179;28;20045;-71
2022/03/26 08:15:03;;;;;;;37.08;16.42;;;;;;;3.87;79.41;100018.34;4193956;28;20041;-71
2022/03/26 08:17:03;;;;;;;38.75;17.83;;;;;;;4.00;78.92;100022.28;4188789;28;20045;-71
2022/03/26 08:19:04;;;;;;;32.35;16.42;;;;;;;4.12;80.24;100024.53;4192324;28;20043;-71
2022/03/26 08:21:09;;;;;;;35.08;17.45;;;;;;;4.22;80.69;100030.69;4195184;28;20085;-71
2022/03/26 08:23:10;;;;;;;33.88;17.83;;;;;;;4.32;81.27;100018.75;4192009;28;20052;-71
2022/03/26 08:25:11;;;;;;;41.17;18.63;;;;;;;4.46;81.71;100027.81;4195343;28;20044;-71
2022/03/26 08:27:11;;;;;;;41.15;18.40;;;;;;;4.60;80.79;100018.84;4194085;28;20435;-71
2022/03/26 08:29:12;;;;;;;35.53;17.50;;;;;;;4.71;80.69;100025.75;4195971;28;20036;-71
2022/03/26 08:31:13;;;;;;;42.97;20.80;;;;;;;4.83;81.60;100020.63;4197801;28;20042;-71
2022/03/26 08:33:13;;;;;;;41.17;18.73;;;;;;;4.99;80.53;100024.69;4191261;28;20052;-72
2022/03/26 08:35:15;;;;;;;39.67;19.00;;;;;;;5.09;80.43;100018.19;4195672;28;20040;-71
2022/03/26 08:37:15;;;;;;;38.97;18.55;;;;;;;5.23;81.02;100023.69;4193027;28;20040;-71
2022/03/26 08:39:15;;;;;;;40.50;18.35;;;;;;;5.43;80.73;100019.72;4193539;28;20044;-72
2022/03/26 08:41:19;;;;;;;37.92;19.20;;;;;;;5.63;80.18;100011.88;4195028;28;20288;-72
2022/03/26 08:43:20;;;;;;;38.35;18.70;;;;;;;5.98;79.64;100014.97;4192121;28;20762;-71
2022/03/26 08:45:20;;;;;;;36.58;19.95;;;;;;;6.60;74.18;100015.09;4190194;28;20048;-71
2022/03/26 08:47:20;;;;;;;39.35;18.90;;;;;;;6.89;71.98;100011.84;4194348;28;20040;-72
2022/03/26 08:49:21;;;;;;;37.63;18.85;;;;;;;7.21;70.72;100009.91;4193329;28;20048;-72
2022/03/26 08:51:21;;;;;;;38.75;19.02;;;;;;;7.40;70.21;100009.63;4190150;28;20295;-72
2022/03/26 08:53:21;;;;;;;42.58;20.90;;;;;;;7.54;70.38;100010.31;4193636;28;20057;-72
2022/03/26 08:55:23;;;;;;;41.45;20.08;;;;;;;7.69;68.85;100009.03;4188680;28;20053;-72
2022/03/26 08:57:25;;;;;;;42.70;20.10;;;;;;;7.76;68.86;100004.66;4189812;28;20032;-72
2022/03/26 08:59:25;;;;;;;40.88;20.02;;;;;;;7.86;69.53;100006.28;4190588;28;20043;-71
2022/03/26 09:01:26;;;;;;;43.45;20.83;;;;;;;7.88;69.06;100004.06;4187099;28;20037;-71
2022/03/26 09:03:27;;;;;;;36.58;19.60;;;;;;;8.04;68.49;100005.19;4189047;28;20041;-71
2022/03/26 09:05:34;;;;;;;38.75;18.85;;;;;;;8.29;67.63;100011.03;4189724;28;20044;-72
2022/03/26 09:07:35;;;;;;;41.40;19.20;;;;;;;8.62;65.56;100011.34;4188765;28;20252;-72
2022/03/26 09:09:35;;;;;;;39.88;19.15;;;;;;;8.78;66.30;99997.84;4187036;28;20091;-72
2022/03/26 09:11:35;;;;;;;40.35;21.48;;;;;;;9.14;62.83;100006.47;4191650;28;20041;-72
2022/03/26 09:13:36;;;;;;;44.40;20.55;;;;;;;9.33;61.81;99994.19;4193082;28;20047;-72
2022/03/26 09:15:38;;;;;;;39.40;18.73;;;;;;;9.61;61.40;100002.81;4188520;28;20071;-72